createdAt,value
2023-03-26T00:01:33.377Z,9.20
2023-03-26T00:04:01.106Z,9.20
2023-03-26T00:06:36.685Z,9.10
2023-03-26T00:09:08.463Z,9.20
2023-03-26T00:11:35.815Z,9.20
2023-03-26T00:14:03.970Z,9.20
2023-03-26T00:16:32.028Z,9.20
2023-03-26T00:19:01.116Z,9.20
2023-03-26T00:21:30.392Z,9.20
2023-03-26T00:24:06.697Z,9.20
2023-03-26T00:26:35.040Z,9.20
2023-03-26T00:29:03.485Z,9.20
2023-03-26T00:31:30.736Z,9.20
2023-03-26T00:34:03.033Z,9.20
2023-03-26T00:36:29.875Z,9.20
2023-03-26T00:38:56.736Z,9.20
2023-03-26T00:41:25.973Z,9.20
2023-03-26T00:43:56.565Z,9.20
2023-03-26T00:46:24.754Z,9.20
2023-03-26T00:48:51.654Z,9.20
2023-03-26T00:51:20.586Z,9.20
2023-03-26T00:53:49.048Z,9.20
2023-03-26T00:56:16.171Z,9.20
2023-03-26T00:58:43.639Z,9.20
2023-03-26T01:01:16.500Z,9.20
2023-03-26T01:03:53.603Z,9.20
2023-03-26T01:06:35.882Z,9.30
2023-03-26T01:09:12.591Z,9.20
2023-03-26T01:11:39.551Z,9.20
2023-03-26T01:14:15.837Z,9.10
2023-03-26T01:16:45.099Z,9.10
2023-03-26T01:19:29.095Z,9.00
2023-03-26T01:21:57.494Z,9.00
2023-03-26T01:24:24.280Z,9.00
2023-03-26T01:27:09.658Z,9.00
2023-03-26T01:29:56.425Z,9.00
2023-03-26T01:32:47.801Z,9.00
2023-03-26T01:35:24.628Z,9.10
2023-03-26T01:38:10.670Z,9.10
2023-03-26T01:40:55.053Z,9.00
2023-03-26T01:43:45.461Z,9.00
2023-03-26T01:46:15.290Z,9.00
2023-03-26T01:48:47.065Z,8.90
2023-03-26T01:51:14.968Z,8.90
2023-03-26T01:53:47.637Z,8.90
2023-03-26T01:56:24.145Z,8.90
2023-03-26T01:59:05.722Z,8.80
2023-03-26T02:01:45.982Z,8.90
2023-03-26T02:04:26.505Z,8.80
2023-03-26T02:07:01.982Z,8.90
2023-03-26T02:09:32.152Z,8.90
2023-03-26T02:12:00.819Z,8.90
2023-03-26T02:14:30.567Z,8.90
2023-03-26T02:16:58.526Z,8.90
2023-03-26T02:19:25.261Z,8.90
2023-03-26T02:21:52.185Z,8.90
2023-03-26T02:24:20.066Z,8.80
2023-03-26T02:26:46.906Z,8.80
2023-03-26T02:29:19.289Z,8.80
2023-03-26T02:31:49.371Z,8.80
2023-03-26T02:34:16.988Z,8.80
2023-03-26T02:36:43.961Z,8.80
2023-03-26T02:39:11.891Z,8.70
2023-03-26T02:41:38.808Z,8.70
2023-03-26T02:44:05.757Z,8.70
2023-03-26T02:46:35.526Z,8.70
2023-03-26T02:49:02.107Z,8.70
2023-03-26T02:51:28.771Z,8.70
2023-03-26T02:53:57.543Z,8.70
2023-03-26T02:56:24.182Z,8.70
2023-03-26T02:58:51.103Z,8.70
2023-03-26T03:01:18.467Z,8.70
2023-03-26T03:03:47.244Z,8.80
2023-03-26T03:06:16.982Z,8.90
2023-03-26T03:08:45.968Z,8.80
2023-03-26T03:11:21.705Z,8.90
2023-03-26T03:13:48.480Z,8.90
2023-03-26T03:16:15.388Z,8.90
2023-03-26T03:18:42.009Z,8.80
2023-03-26T03:21:08.684Z,8.90
2023-03-26T03:23:35.450Z,8.90
2023-03-26T03:26:02.607Z,9.00
2023-03-26T03:28:30.405Z,9.00
2023-03-26T03:30:58.756Z,9.10
2023-03-26T03:33:25.835Z,9.00
2023-03-26T03:35:52.942Z,8.90
2023-03-26T03:38:19.771Z,8.90
2023-03-26T03:40:46.522Z,9.00
2023-03-26T03:43:13.078Z,8.90
2023-03-26T03:45:39.701Z,9.00
2023-03-26T03:48:06.635Z,9.00
2023-03-26T03:50:35.617Z,8.90
2023-03-26T03:53:05.495Z,8.90
2023-03-26T03:55:32.276Z,8.90
2023-03-26T03:57:58.998Z,8.90
2023-03-26T04:00:25.612Z,8.90
2023-03-26T04:02:54.269Z,8.90
2023-03-26T04:05:21.409Z,8.90
2023-03-26T04:07:48.154Z,9.00
2023-03-26T04:10:15.289Z,8.90
2023-03-26T04:12:42.107Z,8.90
2023-03-26T04:15:08.931Z,8.90
2023-03-26T04:17:42.350Z,8.80
2023-03-26T04:20:14.696Z,8.80
2023-03-26T04:22:43.585Z,8.80
2023-03-26T04:25:12.453Z,8.90
2023-03-26T04:27:41.580Z,8.80
2023-03-26T04:30:12.460Z,8.80
2023-03-26T04:32:40.350Z,8.80
2023-03-26T04:35:07.193Z,8.70
2023-03-26T04:37:40.039Z,8.80
2023-03-26T04:40:20.199Z,8.80
2023-03-26T04:42:46.978Z,8.80
2023-03-26T04:45:16.072Z,8.80
2023-03-26T04:47:43.020Z,8.80
2023-03-26T04:50:11.045Z,8.70
2023-03-26T04:52:38.399Z,8.70
2023-03-26T04:55:13.730Z,8.70
2023-03-26T04:57:46.149Z,8.60
2023-03-26T05:00:16.448Z,8.70
2023-03-26T05:02:43.493Z,8.70
2023-03-26T05:05:10.504Z,8.70
2023-03-26T05:07:37.502Z,8.70
2023-03-26T05:10:05.755Z,8.70
2023-03-26T05:12:32.465Z,8.60
2023-03-26T05:14:59.133Z,8.60
2023-03-26T05:17:27.183Z,8.50
2023-03-26T05:19:53.907Z,8.50
2023-03-26T05:22:20.688Z,8.40
2023-03-26T05:24:47.270Z,8.40
2023-03-26T05:27:17.290Z,8.40
2023-03-26T05:29:44.025Z,8.40
2023-03-26T05:32:11.253Z,8.40
2023-03-26T05:34:40.342Z,8.40
2023-03-26T05:37:09.048Z,8.40
2023-03-26T05:39:35.660Z,8.40
2023-03-26T05:42:02.631Z,8.40
2023-03-26T05:44:29.578Z,8.40
2023-03-26T05:46:57.309Z,8.40
2023-03-26T05:49:23.989Z,8.40
2023-03-26T05:51:50.775Z,8.50
2023-03-26T05:54:17.553Z,8.50
2023-03-26T05:56:44.194Z,8.50
2023-03-26T05:59:10.822Z,8.60
2023-03-26T06:01:37.430Z,8.60
2023-03-26T06:04:04.221Z,8.60
2023-03-26T06:06:33.197Z,8.60
2023-03-26T06:09:01.767Z,8.60
2023-03-26T06:11:29.804Z,8.60
2023-03-26T06:13:56.438Z,8.60
2023-03-26T06:16:26.565Z,8.60
2023-03-26T06:18:56.745Z,8.60
2023-03-26T06:21:28.413Z,8.60
2023-03-26T06:23:55.945Z,8.70
2023-03-26T06:26:22.646Z,8.70
2023-03-26T06:28:49.412Z,8.70
2023-03-26T06:33:43.881Z,8.70
2023-03-26T06:36:10.849Z,8.70
2023-03-26T06:38:37.708Z,8.70
2023-03-26T06:41:06.179Z,8.70
2023-03-26T06:43:34.074Z,8.80
2023-03-26T06:46:02.040Z,8.80
2023-03-26T06:48:29.318Z,8.80
2023-03-26T06:50:56.345Z,8.90
2023-03-26T06:53:23.226Z,8.90
2023-03-26T06:55:49.896Z,8.80
2023-03-26T06:58:16.739Z,8.90
2023-03-26T07:00:43.615Z,8.90
2023-03-26T07:03:11.329Z,9.00
2023-03-26T07:05:40.388Z,9.00
2023-03-26T07:08:07.023Z,9.00
2023-03-26T07:10:33.781Z,9.10
2023-03-26T07:13:00.575Z,9.10
2023-03-26T07:15:28.861Z,9.10
2023-03-26T07:17:56.137Z,9.10
2023-03-26T07:20:22.863Z,9.10
2023-03-26T07:22:50.408Z,9.10
2023-03-26T07:25:18.276Z,9.10
2023-03-26T07:28:07.264Z,9.20
2023-03-26T07:31:06.577Z,9.20
2023-03-26T07:33:56.380Z,9.20
2023-03-26T07:36:53.939Z,9.20
2023-03-26T07:39:44.274Z,9.20
2023-03-26T07:42:32.084Z,9.20
2023-03-26T07:45:19.600Z,9.10
2023-03-26T07:47:49.277Z,9.10
2023-03-26T07:50:21.848Z,9.10
2023-03-26T07:52:48.957Z,9.10
2023-03-26T07:55:16.784Z,9.10
2023-03-26T07:57:48.625Z,9.10
2023-03-26T08:00:23.706Z,9.10
2023-03-26T08:03:06.952Z,9.10
2023-03-26T08:05:51.140Z,9.00
2023-03-26T08:08:47.558Z,9.00
2023-03-26T08:11:29.850Z,9.00
2023-03-26T08:14:17.034Z,9.00
2023-03-26T08:16:58.769Z,9.00
2023-03-26T08:19:38.547Z,9.10
2023-03-26T08:22:26.043Z,9.10
2023-03-26T08:25:13.812Z,9.00
2023-03-26T08:27:51.694Z,9.00
2023-03-26T08:30:24.637Z,9.00
2023-03-26T08:33:11.122Z,9.10
2023-03-26T08:35:42.522Z,9.10
2023-03-26T08:38:10.878Z,9.00
2023-03-26T08:40:53.707Z,9.00
2023-03-26T08:43:36.884Z,9.20
2023-03-26T08:50:33.512Z,9.20
2023-03-26T08:53:18.206Z,9.20
2023-03-26T08:56:01.285Z,9.20
2023-03-26T08:58:39.743Z,9.10
2023-03-26T09:01:21.639Z,9.10
2023-03-26T09:03:54.425Z,9.20
2023-03-26T09:06:43.592Z,9.10
2023-03-26T09:09:34.602Z,9.10
2023-03-26T09:12:41.101Z,9.10
2023-03-26T09:15:22.969Z,9.10
2023-03-26T09:18:07.876Z,9.10
2023-03-26T09:20:53.617Z,9.10
2023-03-26T09:23:54.674Z,9.20
2023-03-26T09:26:33.396Z,9.20
2023-03-26T09:29:38.872Z,9.30
2023-03-26T09:32:33.585Z,9.30
2023-03-26T09:35:14.553Z,9.30
2023-03-26T09:37:59.357Z,9.20
2023-03-26T09:40:41.394Z,9.20
2023-03-26T09:43:36.568Z,9.40
2023-03-26T09:46:21.592Z,9.40
2023-03-26T09:49:23.066Z,9.40
2023-03-26T09:51:59.226Z,9.40
2023-03-26T09:54:28.816Z,9.30
2023-03-26T09:57:20.297Z,9.30
2023-03-26T09:59:53.248Z,9.30
2023-03-26T10:02:45.405Z,9.20
2023-03-26T10:05:26.732Z,9.30
2023-03-26T10:08:24.877Z,9.30
2023-03-26T10:11:05.655Z,9.40
2023-03-26T10:13:51.232Z,9.40
2023-03-26T10:16:31.024Z,9.50
2023-03-26T10:19:14.212Z,9.50
2023-03-26T10:22:03.112Z,9.60
2023-03-26T10:25:08.207Z,9.60
2023-03-26T10:27:52.819Z,9.60
2023-03-26T10:30:36.175Z,9.50
2023-03-26T10:33:31.941Z,9.50
2023-03-26T10:36:18.126Z,9.60
2023-03-26T10:39:01.680Z,9.70
2023-03-26T10:41:58.874Z,9.80
2023-03-26T10:44:59.461Z,9.90
2023-03-26T10:48:00.768Z,10.10
2023-03-26T10:50:56.850Z,10.40
2023-03-26T10:53:36.254Z,10.70
2023-03-26T10:56:30.110Z,10.90
2023-03-26T10:58:57.311Z,11.10
2023-03-26T11:01:57.807Z,11.20
2023-03-26T11:04:42.862Z,11.40
2023-03-26T11:07:47.604Z,11.70
2023-03-26T11:10:21.552Z,12.00
2023-03-26T11:13:18.393Z,11.80
2023-03-26T11:15:57.595Z,11.60
2023-03-26T11:18:36.505Z,12.00
2023-03-26T11:21:22.979Z,12.10
2023-03-26T11:24:07.471Z,12.00
2023-03-26T11:26:46.505Z,12.00
2023-03-26T11:29:51.371Z,12.00
2023-03-26T11:32:24.343Z,12.10
2023-03-26T11:35:15.515Z,12.00
2023-03-26T11:37:46.395Z,11.70
2023-03-26T11:40:30.039Z,11.50
2023-03-26T11:43:02.004Z,11.30
2023-03-26T11:45:33.228Z,11.20
2023-03-26T11:48:09.258Z,11.10
2023-03-26T11:50:41.537Z,10.70
2023-03-26T11:53:14.629Z,10.70
2023-03-26T11:55:55.757Z,10.70
2023-03-26T11:58:47.253Z,10.70
2023-03-26T12:01:30.268Z,11.10
2023-03-26T12:03:58.871Z,11.40
2023-03-26T12:06:28.827Z,11.50
2023-03-26T12:08:56.893Z,11.60
2023-03-26T12:11:35.272Z,11.80
2023-03-26T12:14:04.801Z,12.10
2023-03-26T12:16:31.785Z,12.60
2023-03-26T12:19:17.736Z,12.70
2023-03-26T12:21:50.246Z,12.50
2023-03-26T12:24:32.774Z,12.00
2023-03-26T12:27:24.883Z,11.90
2023-03-26T12:30:19.630Z,11.50
2023-03-26T12:32:47.858Z,11.60
2023-03-26T12:35:29.187Z,11.70
2023-03-26T12:38:13.241Z,11.70
2023-03-26T12:40:42.510Z,11.60
2023-03-26T12:44:49.800Z,11.50
2023-03-26T12:47:56.501Z,11.60
2023-03-26T12:49:22.265Z,11.90
2023-03-26T12:51:52.620Z,12.40
2023-03-26T12:54:43.011Z,12.70
2023-03-26T12:57:40.707Z,12.90
2023-03-26T13:00:21.306Z,13.50
2023-03-26T13:03:16.723Z,12.90
2023-03-26T13:06:15.755Z,12.90
2023-03-26T13:08:54.430Z,13.00
2023-03-26T13:11:29.734Z,12.90
2023-03-26T13:14:02.095Z,13.40
2023-03-26T13:16:34.791Z,13.60
2023-03-26T13:19:14.409Z,13.90
2023-03-26T13:21:58.465Z,14.20
2023-03-26T13:24:50.283Z,14.10
2023-03-26T13:27:38.761Z,13.90
2023-03-26T13:30:32.332Z,13.50
2023-03-26T13:33:21.659Z,12.80
2023-03-26T13:36:23.196Z,12.70
2023-03-26T13:39:08.206Z,12.40
2023-03-26T13:41:56.423Z,12.30
2023-03-26T13:45:05.067Z,12.10
2023-03-26T13:47:39.222Z,12.00
2023-03-26T13:50:18.031Z,11.90
2023-03-26T13:52:52.194Z,11.70
2023-03-26T13:55:30.442Z,11.70
2023-03-26T13:58:15.931Z,11.70
2023-03-26T14:01:07.962Z,11.70
2023-03-26T14:03:53.591Z,11.40
2023-03-26T14:06:23.216Z,11.40
2023-03-26T14:08:59.162Z,11.40
2023-03-26T14:11:51.979Z,11.20
2023-03-26T14:14:48.531Z,11.10
2023-03-26T14:17:28.451Z,11.00
2023-03-26T14:20:33.468Z,11.00
2023-03-26T14:23:35.028Z,11.30
2023-03-26T14:26:02.790Z,12.10
2023-03-26T14:28:51.348Z,12.50
2023-03-26T14:31:35.996Z,13.00
2023-03-26T14:34:34.775Z,13.20
2023-03-26T14:37:27.317Z,13.20
2023-03-26T14:40:16.944Z,13.30
2023-03-26T14:43:15.357Z,13.50
2023-03-26T14:46:26.971Z,13.20
2023-03-26T14:49:13.550Z,12.90
2023-03-26T14:51:43.314Z,13.00
2023-03-26T14:54:22.539Z,13.10
2023-03-26T14:57:21.531Z,13.60
2023-03-26T15:00:22.538Z,14.20
2023-03-26T15:03:24.698Z,14.90
2023-03-26T15:06:28.665Z,15.20
2023-03-26T15:09:32.147Z,15.20
2023-03-26T15:12:21.016Z,15.40
2023-03-26T15:15:25.878Z,15.00
2023-03-26T15:18:30.216Z,15.60
2023-03-26T15:21:27.656Z,15.70
2023-03-26T15:24:17.627Z,15.00
2023-03-26T15:27:10.380Z,14.70
2023-03-26T15:29:55.708Z,14.50
2023-03-26T15:32:57.063Z,14.60
2023-03-26T15:35:42.003Z,14.70
2023-03-26T15:38:11.431Z,15.10
2023-03-26T15:40:57.152Z,15.20
2023-03-26T15:43:32.135Z,14.70
2023-03-26T15:46:13.260Z,14.40
2023-03-26T15:48:59.049Z,14.20
2023-03-26T15:51:46.462Z,13.90
2023-03-26T15:54:47.300Z,13.80
2023-03-26T15:57:31.899Z,13.50
2023-03-26T16:00:22.753Z,13.30
2023-03-26T16:03:11.077Z,13.00
2023-03-26T16:06:02.150Z,12.60
2023-03-26T16:08:38.072Z,12.40
2023-03-26T16:11:12.507Z,11.50
2023-03-26T16:14:08.159Z,10.40
2023-03-26T16:17:11.926Z,9.90
2023-03-26T16:20:08.320Z,9.40
2023-03-26T16:22:42.509Z,9.10
2023-03-26T16:25:29.087Z,8.70
2023-03-26T16:28:35.270Z,8.50
2023-03-26T16:31:23.637Z,8.50
2023-03-26T16:34:07.771Z,8.50
2023-03-26T16:36:51.449Z,8.60
2023-03-26T16:39:23.324Z,8.80
2023-03-26T16:42:06.401Z,8.80
2023-03-26T16:44:52.886Z,8.90
2023-03-26T16:47:25.384Z,9.10
2023-03-26T16:50:24.410Z,9.30
2023-03-26T16:53:03.034Z,9.50
2023-03-26T16:55:53.671Z,9.50
2023-03-26T16:58:23.174Z,9.40
2023-03-26T17:01:07.617Z,9.30
2023-03-26T17:03:53.105Z,9.30
2023-03-26T17:06:46.995Z,9.20
2023-03-26T17:09:33.850Z,9.20
2023-03-26T17:12:16.232Z,9.20
2023-03-26T17:15:07.801Z,9.20
2023-03-26T17:18:01.248Z,9.20
2023-03-26T17:20:39.580Z,9.30
2023-03-26T17:23:27.041Z,9.20
2023-03-26T17:26:12.589Z,9.20
2023-03-26T17:28:42.189Z,9.20
2023-03-26T17:31:21.309Z,9.10
2023-03-26T17:33:48.300Z,9.10
2023-03-26T17:36:41.324Z,9.20
2023-03-26T17:39:43.429Z,9.20
2023-03-26T17:42:16.114Z,9.20
2023-03-26T17:44:49.355Z,9.30
2023-03-26T17:47:38.607Z,9.30
2023-03-26T17:50:20.167Z,9.20
2023-03-26T17:53:02.142Z,9.20
2023-03-26T17:55:38.651Z,9.30
2023-03-26T17:58:48.986Z,9.30
2023-03-26T18:01:39.859Z,9.30
2023-03-26T18:04:14.666Z,9.30
2023-03-26T18:07:06.263Z,9.30
2023-03-26T18:09:52.074Z,9.40
2023-03-26T18:12:43.897Z,9.30
2023-03-26T18:15:21.793Z,9.30
2023-03-26T18:17:49.629Z,9.30
2023-03-26T18:20:24.536Z,9.20
2023-03-26T18:22:52.468Z,9.30
2023-03-26T18:25:32.200Z,9.30
2023-03-26T18:28:00.773Z,9.30
2023-03-26T18:30:28.132Z,9.10
2023-03-26T18:33:02.858Z,9.00
2023-03-26T18:35:43.256Z,9.00
2023-03-26T18:38:35.031Z,8.90
2023-03-26T18:41:05.860Z,8.90
2023-03-26T18:43:35.092Z,8.90
2023-03-26T18:46:03.994Z,8.90
2023-03-26T18:48:30.754Z,8.90
2023-03-26T18:51:04.992Z,8.90
2023-03-26T18:53:37.875Z,8.80
2023-03-26T18:56:19.402Z,8.80
2023-03-26T18:58:51.493Z,8.80
2023-03-26T19:01:25.886Z,8.80
2023-03-26T19:03:54.186Z,8.80
2023-03-26T19:06:23.217Z,8.70
2023-03-26T19:08:50.513Z,8.70
2023-03-26T19:11:18.050Z,8.70
2023-03-26T19:13:57.858Z,8.80
2023-03-26T19:16:28.493Z,8.90
2023-03-26T19:18:59.398Z,8.90
2023-03-26T19:21:26.347Z,8.80
2023-03-26T19:23:54.531Z,8.80
2023-03-26T19:26:22.257Z,8.80
2023-03-26T19:28:53.274Z,8.80
2023-03-26T19:31:36.552Z,8.80
2023-03-26T19:34:32.217Z,8.80
2023-03-26T19:37:01.910Z,8.80
2023-03-26T19:39:37.110Z,8.80
2023-03-26T19:42:06.644Z,8.80
2023-03-26T19:44:39.385Z,8.70
2023-03-26T19:47:14.988Z,8.80
2023-03-26T19:49:57.822Z,8.80
2023-03-26T19:52:29.442Z,8.70
2023-03-26T19:55:01.651Z,8.70
2023-03-26T19:57:33.126Z,8.70
2023-03-26T20:00:00.503Z,8.70
2023-03-26T20:02:27.583Z,8.70
2023-03-26T20:04:56.887Z,8.60
2023-03-26T20:07:35.380Z,8.60
2023-03-26T20:10:17.353Z,8.60
2023-03-26T20:12:44.403Z,8.60
2023-03-26T20:15:19.410Z,8.70
2023-03-26T20:17:49.916Z,8.70
2023-03-26T20:20:17.420Z,8.70
2023-03-26T20:22:46.763Z,8.60
2023-03-26T20:25:20.721Z,8.70
2023-03-26T20:27:47.893Z,8.70
2023-03-26T20:30:19.047Z,8.70
2023-03-26T20:32:45.921Z,8.80
2023-03-26T20:35:36.162Z,8.70
2023-03-26T20:38:03.310Z,8.70
2023-03-26T20:40:30.873Z,8.60
2023-03-26T20:42:57.633Z,8.50
2023-03-26T20:45:24.375Z,8.50
2023-03-26T20:47:51.039Z,8.50
2023-03-26T20:50:21.895Z,8.50
2023-03-26T20:52:50.106Z,8.40
2023-03-26T20:55:21.685Z,8.40
2023-03-26T20:57:48.537Z,8.40
2023-03-26T21:00:22.896Z,8.40
2023-03-26T21:02:54.141Z,8.40
2023-03-26T21:05:24.618Z,8.30
2023-03-26T21:07:57.558Z,8.30
2023-03-26T21:10:26.120Z,8.20
2023-03-26T21:13:16.314Z,8.20
2023-03-26T21:16:10.744Z,8.20
2023-03-26T21:18:36.790Z,8.10
2023-03-26T21:21:31.304Z,8.10
2023-03-26T21:24:22.679Z,8.00
2023-03-26T21:27:04.425Z,8.00
2023-03-26T21:29:32.297Z,8.00
2023-03-26T21:32:00.150Z,8.00
2023-03-26T21:34:27.954Z,7.90
2023-03-26T21:36:55.605Z,8.00
2023-03-26T21:39:22.416Z,8.00
2023-03-26T21:42:04.317Z,7.90
2023-03-26T21:44:33.002Z,7.90
2023-03-26T21:46:59.934Z,7.80
2023-03-26T21:49:26.967Z,7.80
2023-03-26T21:51:54.003Z,7.70
2023-03-26T21:54:29.305Z,7.70
2023-03-26T21:57:17.559Z,7.70
2023-03-26T21:59:47.389Z,7.70
2023-03-26T22:02:43.553Z,7.60
2023-03-26T22:05:18.437Z,7.60
2023-03-26T22:07:55.997Z,7.70
2023-03-26T22:10:23.253Z,7.50
2023-03-26T22:12:50.494Z,7.40
2023-03-26T22:15:18.125Z,7.50
2023-03-26T22:17:45.671Z,7.40
2023-03-26T22:20:14.747Z,7.40
2023-03-26T22:22:48.757Z,7.40
2023-03-26T22:25:16.534Z,7.20
2023-03-26T22:27:45.061Z,7.20
2023-03-26T22:30:13.783Z,7.20
2023-03-26T22:32:40.941Z,7.10
2023-03-26T22:35:07.964Z,7.10
2023-03-26T22:37:36.991Z,7.00
2023-03-26T22:40:13.057Z,7.00
2023-03-26T22:42:40.900Z,7.00
2023-03-26T22:45:09.200Z,7.00
2023-03-26T22:47:36.157Z,7.00
2023-03-26T22:50:04.536Z,6.90
2023-03-26T22:52:31.334Z,6.80
2023-03-26T22:54:57.990Z,6.70
2023-03-26T22:57:24.849Z,6.70
2023-03-26T22:59:52.015Z,6.70
2023-03-26T23:02:19.399Z,6.70
2023-03-26T23:04:47.648Z,6.70
2023-03-26T23:07:14.498Z,6.70
2023-03-26T23:09:41.519Z,6.60
2023-03-26T23:12:08.259Z,6.70
2023-03-26T23:14:36.155Z,6.70
2023-03-26T23:17:02.721Z,6.70
2023-03-26T23:19:32.901Z,6.70
2023-03-26T23:21:59.526Z,6.70
2023-03-26T23:24:26.361Z,6.60
2023-03-26T23:26:53.259Z,6.60
2023-03-26T23:29:20.211Z,6.60
2023-03-26T23:31:47.427Z,6.60
2023-03-26T23:34:16.178Z,6.60
2023-03-26T23:36:44.607Z,6.60
2023-03-26T23:39:11.679Z,6.50
2023-03-26T23:41:38.482Z,6.50
2023-03-26T23:44:05.304Z,6.50
2023-03-26T23:46:35.382Z,6.40
2023-03-26T23:49:03.412Z,6.40
2023-03-26T23:51:31.555Z,6.40
2023-03-26T23:53:58.446Z,6.20
2023-03-26T23:56:27.516Z,6.10
2023-03-26T23:58:55.125Z,6.00
